sensor_id;sensor_type;location;lat;lon;timestamp;temperature;humidity
13673;DHT22;6909;52.202;9.876;2023-12-20T00:00:13;6.80;99.90
13673;DHT22;6909;52.202;9.876;2023-12-20T00:02:40;6.70;99.90
13673;DHT22;6909;52.202;9.876;2023-12-20T00:05:10;6.80;99.90
13673;DHT22;6909;52.202;9.876;2023-12-20T00:07:37;6.80;99.90
13673;DHT22;6909;52.202;9.876;2023-12-20T00:10:05;6.80;99.90
13673;DHT22;6909;52.202;9.876;2023-12-20T00:12:32;6.80;99.90
13673;DHT22;6909;52.202;9.876;2023-12-20T00:14:59;6.80;99.90
13673;DHT22;6909;52.202;9.876;2023-12-20T00:17:26;6.90;99.90
13673;DHT22;6909;52.202;9.876;2023-12-20T00:19:52;6.90;99.90
13673;DHT22;6909;52.202;9.876;2023-12-20T00:22:19;6.90;99.90
13673;DHT22;6909;52.202;9.876;2023-12-20T00:24:45;6.90;99.90
13673;DHT22;6909;52.202;9.876;2023-12-20T00:27:13;6.90;99.90
13673;DHT22;6909;52.202;9.876;2023-12-20T00:29:40;6.90;99.90
13673;DHT22;6909;52.202;9.876;2023-12-20T00:32:08;6.90;99.90
13673;DHT22;6909;52.202;9.876;2023-12-20T00:34:34;6.90;99.90
13673;DHT22;6909;52.202;9.876;2023-12-20T00:37:01;6.80;99.90
13673;DHT22;6909;52.202;9.876;2023-12-20T00:39:28;6.80;99.90
13673;DHT22;6909;52.202;9.876;2023-12-20T00:41:55;6.60;99.90
13673;DHT22;6909;52.202;9.876;2023-12-20T00:44:23;6.60;99.90
13673;DHT22;6909;52.202;9.876;2023-12-20T00:46:49;6.50;99.90
13673;DHT22;6909;52.202;9.876;2023-12-20T00:49:16;6.50;99.90
13673;DHT22;6909;52.202;9.876;2023-12-20T00:51:43;6.50;99.90
13673;DHT22;6909;52.202;9.876;2023-12-20T00:54:10;6.40;99.90
13673;DHT22;6909;52.202;9.876;2023-12-20T00:56:36;6.40;99.90
13673;DHT22;6909;52.202;9.876;2023-12-20T00:59:03;6.30;99.90
13673;DHT22;6909;52.202;9.876;2023-12-20T01:01:31;6.30;99.90
13673;DHT22;6909;52.202;9.876;2023-12-20T01:03:58;6.20;99.90
13673;DHT22;6909;52.202;9.876;2023-12-20T01:06:25;6.10;99.90
13673;DHT22;6909;52.202;9.876;2023-12-20T01:08:52;6.10;99.90
13673;DHT22;6909;52.202;9.876;2023-12-20T01:11:18;6.10;99.90
13673;DHT22;6909;52.202;9.876;2023-12-20T01:13:46;6.00;99.90
13673;DHT22;6909;52.202;9.876;2023-12-20T01:16:13;6.00;99.90
13673;DHT22;6909;52.202;9.876;2023-12-20T01:18:41;5.90;99.90
13673;DHT22;6909;52.202;9.876;2023-12-20T01:21:08;5.90;99.90
13673;DHT22;6909;52.202;9.876;2023-12-20T01:23:34;5.80;99.90
13673;DHT22;6909;52.202;9.876;2023-12-20T01:26:01;5.70;99.90
13673;DHT22;6909;52.202;9.876;2023-12-20T01:28:29;5.70;99.90
13673;DHT22;6909;52.202;9.876;2023-12-20T01:30:56;5.70;99.90
13673;DHT22;6909;52.202;9.876;2023-12-20T01:33:26;5.60;99.90
13673;DHT22;6909;52.202;9.876;2023-12-20T01:35:54;5.60;99.90
13673;DHT22;6909;52.202;9.876;2023-12-20T01:38:23;5.60;99.90
13673;DHT22;6909;52.202;9.876;2023-12-20T01:40:50;5.50;99.90
13673;DHT22;6909;52.202;9.876;2023-12-20T01:43:16;5.60;99.90
13673;DHT22;6909;52.202;9.876;2023-12-20T01:45:43;5.60;99.90
13673;DHT22;6909;52.202;9.876;2023-12-20T01:48:10;5.60;99.90
13673;DHT22;6909;52.202;9.876;2023-12-20T01:50:37;5.50;99.90
13673;DHT22;6909;52.202;9.876;2023-12-20T01:53:07;5.50;99.90
13673;DHT22;6909;52.202;9.876;2023-12-20T01:55:37;5.50;99.90
13673;DHT22;6909;52.202;9.876;2023-12-20T01:58:05;5.40;99.90
13673;DHT22;6909;52.202;9.876;2023-12-20T02:00:33;5.40;99.90
13673;DHT22;6909;52.202;9.876;2023-12-20T02:03:01;5.50;99.90
13673;DHT22;6909;52.202;9.876;2023-12-20T02:05:28;5.50;99.90
13673;DHT22;6909;52.202;9.876;2023-12-20T02:07:55;5.50;99.90
13673;DHT22;6909;52.202;9.876;2023-12-20T02:10:24;5.60;99.90
13673;DHT22;6909;52.202;9.876;2023-12-20T02:12:51;5.60;99.90
13673;DHT22;6909;52.202;9.876;2023-12-20T02:15:18;5.70;99.90
13673;DHT22;6909;52.202;9.876;2023-12-20T02:17:45;5.70;99.90
13673;DHT22;6909;52.202;9.876;2023-12-20T02:20:13;5.70;99.90
13673;DHT22;6909;52.202;9.876;2023-12-20T02:22:41;5.70;99.90
13673;DHT22;6909;52.202;9.876;2023-12-20T02:25:07;5.80;99.90
13673;DHT22;6909;52.202;9.876;2023-12-20T02:27:34;5.80;99.90
13673;DHT22;6909;52.202;9.876;2023-12-20T02:30:02;5.80;99.90
13673;DHT22;6909;52.202;9.876;2023-12-20T02:32:29;5.70;99.90
13673;DHT22;6909;52.202;9.876;2023-12-20T02:34:55;5.60;99.90
13673;DHT22;6909;52.202;9.876;2023-12-20T02:37:22;5.60;99.90
13673;DHT22;6909;52.202;9.876;2023-12-20T02:39:50;5.50;99.90
13673;DHT22;6909;52.202;9.876;2023-12-20T02:42:17;5.40;99.90
13673;DHT22;6909;52.202;9.876;2023-12-20T02:44:44;5.30;99.90
13673;DHT22;6909;52.202;9.876;2023-12-20T02:47:10;5.30;99.90
13673;DHT22;6909;52.202;9.876;2023-12-20T02:49:37;5.30;99.90
13673;DHT22;6909;52.202;9.876;2023-12-20T02:52:04;5.30;99.90
13673;DHT22;6909;52.202;9.876;2023-12-20T02:54:31;5.30;99.90
13673;DHT22;6909;52.202;9.876;2023-12-20T02:56:59;5.30;99.90
13673;DHT22;6909;52.202;9.876;2023-12-20T02:59:26;5.30;99.90
13673;DHT22;6909;52.202;9.876;2023-12-20T03:01:52;5.20;99.90
13673;DHT22;6909;52.202;9.876;2023-12-20T03:04:19;5.30;99.90
13673;DHT22;6909;52.202;9.876;2023-12-20T03:06:46;5.40;99.90
13673;DHT22;6909;52.202;9.876;2023-12-20T03:09:12;5.50;99.90
13673;DHT22;6909;52.202;9.876;2023-12-20T03:11:39;5.50;99.90
13673;DHT22;6909;52.202;9.876;2023-12-20T03:14:07;5.50;99.90
13673;DHT22;6909;52.202;9.876;2023-12-20T03:16:34;5.40;99.90
13673;DHT22;6909;52.202;9.876;2023-12-20T03:19:00;5.40;99.90
13673;DHT22;6909;52.202;9.876;2023-12-20T03:21:27;5.30;99.90
13673;DHT22;6909;52.202;9.876;2023-12-20T03:23:54;5.40;99.90
13673;DHT22;6909;52.202;9.876;2023-12-20T03:26:20;5.30;99.90
13673;DHT22;6909;52.202;9.876;2023-12-20T03:28:47;5.20;99.90
13673;DHT22;6909;52.202;9.876;2023-12-20T03:31:16;5.20;99.90
13673;DHT22;6909;52.202;9.876;2023-12-20T03:33:43;5.10;99.90
13673;DHT22;6909;52.202;9.876;2023-12-20T03:36:09;5.10;99.90
13673;DHT22;6909;52.202;9.876;2023-12-20T03:38:36;5.00;99.90
13673;DHT22;6909;52.202;9.876;2023-12-20T03:41:04;5.00;99.90
13673;DHT22;6909;52.202;9.876;2023-12-20T03:43:30;5.00;99.90
13673;DHT22;6909;52.202;9.876;2023-12-20T03:45:56;5.00;99.90
13673;DHT22;6909;52.202;9.876;2023-12-20T03:48:25;4.90;99.90
13673;DHT22;6909;52.202;9.876;2023-12-20T03:50:52;4.90;99.90
13673;DHT22;6909;52.202;9.876;2023-12-20T03:53:18;4.90;99.90
13673;DHT22;6909;52.202;9.876;2023-12-20T03:55:45;4.90;99.90
13673;DHT22;6909;52.202;9.876;2023-12-20T03:58:12;5.00;99.90
13673;DHT22;6909;52.202;9.876;2023-12-20T04:00:38;5.00;99.90
13673;DHT22;6909;52.202;9.876;2023-12-20T04:03:05;5.00;99.90
13673;DHT22;6909;52.202;9.876;2023-12-20T04:05:33;5.00;99.90
13673;DHT22;6909;52.202;9.876;2023-12-20T04:08:01;5.00;99.90
13673;DHT22;6909;52.202;9.876;2023-12-20T04:10:28;5.10;99.90
13673;DHT22;6909;52.202;9.876;2023-12-20T04:12:58;5.10;99.90
13673;DHT22;6909;52.202;9.876;2023-12-20T04:15:24;5.20;99.90
13673;DHT22;6909;52.202;9.876;2023-12-20T04:17:51;5.30;99.90
13673;DHT22;6909;52.202;9.876;2023-12-20T04:20:18;5.30;99.90
13673;DHT22;6909;52.202;9.876;2023-12-20T04:22:46;5.40;99.90
13673;DHT22;6909;52.202;9.876;2023-12-20T04:25:12;5.50;99.90
13673;DHT22;6909;52.202;9.876;2023-12-20T04:27:39;5.50;99.90
13673;DHT22;6909;52.202;9.876;2023-12-20T04:30:07;5.50;99.90
13673;DHT22;6909;52.202;9.876;2023-12-20T04:32:34;5.50;99.90
13673;DHT22;6909;52.202;9.876;2023-12-20T04:35:01;5.60;99.90
13673;DHT22;6909;52.202;9.876;2023-12-20T04:37:27;5.60;99.90
13673;DHT22;6909;52.202;9.876;2023-12-20T04:39:55;5.60;99.90
13673;DHT22;6909;52.202;9.876;2023-12-20T04:42:22;5.70;99.90
13673;DHT22;6909;52.202;9.876;2023-12-20T04:44:48;5.70;99.90
13673;DHT22;6909;52.202;9.876;2023-12-20T04:47:15;5.70;99.90
13673;DHT22;6909;52.202;9.876;2023-12-20T04:49:42;5.80;99.90
13673;DHT22;6909;52.202;9.876;2023-12-20T04:52:08;5.80;99.90
13673;DHT22;6909;52.202;9.876;2023-12-20T04:54:35;5.80;99.90
13673;DHT22;6909;52.202;9.876;2023-12-20T04:57:02;5.80;99.90
13673;DHT22;6909;52.202;9.876;2023-12-20T04:59:29;5.80;99.90
13673;DHT22;6909;52.202;9.876;2023-12-20T05:01:55;5.80;99.90
13673;DHT22;6909;52.202;9.876;2023-12-20T05:04:23;5.80;99.90
13673;DHT22;6909;52.202;9.876;2023-12-20T05:06:49;5.80;99.90
13673;DHT22;6909;52.202;9.876;2023-12-20T05:09:16;5.80;99.90
13673;DHT22;6909;52.202;9.876;2023-12-20T05:11:43;5.70;99.90
13673;DHT22;6909;52.202;9.876;2023-12-20T05:14:11;5.80;99.90
13673;DHT22;6909;52.202;9.876;2023-12-20T05:16:37;5.70;99.90
13673;DHT22;6909;52.202;9.876;2023-12-20T05:19:04;5.70;99.90
13673;DHT22;6909;52.202;9.876;2023-12-20T05:21:32;5.80;99.90
13673;DHT22;6909;52.202;9.876;2023-12-20T05:23:58;5.80;99.90
13673;DHT22;6909;52.202;9.876;2023-12-20T05:26:25;5.80;99.90
13673;DHT22;6909;52.202;9.876;2023-12-20T05:28:52;5.90;99.90
13673;DHT22;6909;52.202;9.876;2023-12-20T05:31:20;5.90;99.90
13673;DHT22;6909;52.202;9.876;2023-12-20T05:33:46;6.00;99.90
13673;DHT22;6909;52.202;9.876;2023-12-20T05:36:13;5.90;99.90
13673;DHT22;6909;52.202;9.876;2023-12-20T05:38:40;6.00;99.90
13673;DHT22;6909;52.202;9.876;2023-12-20T05:41:07;6.00;99.90
13673;DHT22;6909;52.202;9.876;2023-12-20T05:43:33;6.00;99.90
13673;DHT22;6909;52.202;9.876;2023-12-20T05:46:00;6.00;99.90
13673;DHT22;6909;52.202;9.876;2023-12-20T05:48:28;6.00;99.90
13673;DHT22;6909;52.202;9.876;2023-12-20T05:50:55;6.00;99.90
13673;DHT22;6909;52.202;9.876;2023-12-20T05:53:21;6.00;99.90
13673;DHT22;6909;52.202;9.876;2023-12-20T05:55:48;6.10;99.90
13673;DHT22;6909;52.202;9.876;2023-12-20T05:58:15;6.00;99.90
13673;DHT22;6909;52.202;9.876;2023-12-20T06:00:41;6.00;99.90
13673;DHT22;6909;52.202;9.876;2023-12-20T06:03:08;5.90;99.90
13673;DHT22;6909;52.202;9.876;2023-12-20T06:05:36;6.00;99.90
13673;DHT22;6909;52.202;9.876;2023-12-20T06:08:03;6.00;99.90
13673;DHT22;6909;52.202;9.876;2023-12-20T06:10:29;5.90;99.90
13673;DHT22;6909;52.202;9.876;2023-12-20T06:12:56;5.90;99.90
13673;DHT22;6909;52.202;9.876;2023-12-20T06:15:24;5.90;99.90
13673;DHT22;6909;52.202;9.876;2023-12-20T06:17:51;5.90;99.90
13673;DHT22;6909;52.202;9.876;2023-12-20T06:20:17;5.90;99.90
13673;DHT22;6909;52.202;9.876;2023-12-20T06:22:45;5.80;99.90
13673;DHT22;6909;52.202;9.876;2023-12-20T06:25:12;5.70;99.90
13673;DHT22;6909;52.202;9.876;2023-12-20T06:27:39;5.70;99.90
13673;DHT22;6909;52.202;9.876;2023-12-20T06:30:07;5.60;99.90
13673;DHT22;6909;52.202;9.876;2023-12-20T06:32:34;5.70;99.90
13673;DHT22;6909;52.202;9.876;2023-12-20T06:35:01;5.80;99.90
13673;DHT22;6909;52.202;9.876;2023-12-20T06:37:27;5.70;99.90
13673;DHT22;6909;52.202;9.876;2023-12-20T06:39:55;5.80;99.90
13673;DHT22;6909;52.202;9.876;2023-12-20T06:42:23;5.80;99.90
13673;DHT22;6909;52.202;9.876;2023-12-20T06:44:49;5.80;99.90
13673;DHT22;6909;52.202;9.876;2023-12-20T06:47:16;5.70;99.90
13673;DHT22;6909;52.202;9.876;2023-12-20T06:49:42;5.60;99.90
13673;DHT22;6909;52.202;9.876;2023-12-20T06:52:09;5.60;99.90
13673;DHT22;6909;52.202;9.876;2023-12-20T06:54:36;5.50;99.90
13673;DHT22;6909;52.202;9.876;2023-12-20T06:57:04;5.50;99.90
13673;DHT22;6909;52.202;9.876;2023-12-20T06:59:31;5.50;99.90
13673;DHT22;6909;52.202;9.876;2023-12-20T07:01:58;5.60;99.90
13673;DHT22;6909;52.202;9.876;2023-12-20T07:04:24;5.70;99.90
13673;DHT22;6909;52.202;9.876;2023-12-20T07:06:51;5.80;99.90
13673;DHT22;6909;52.202;9.876;2023-12-20T07:09:22;5.70;99.90
13673;DHT22;6909;52.202;9.876;2023-12-20T07:11:48;5.60;99.90
13673;DHT22;6909;52.202;9.876;2023-12-20T07:14:16;5.50;99.90
13673;DHT22;6909;52.202;9.876;2023-12-20T07:16:43;5.50;99.90
13673;DHT22;6909;52.202;9.876;2023-12-20T07:19:10;5.60;99.90
13673;DHT22;6909;52.202;9.876;2023-12-20T07:21:36;5.60;99.90
13673;DHT22;6909;52.202;9.876;2023-12-20T07:24:03;5.60;99.90
13673;DHT22;6909;52.202;9.876;2023-12-20T07:26:30;5.70;99.90
13673;DHT22;6909;52.202;9.876;2023-12-20T07:28:56;5.70;99.90
13673;DHT22;6909;52.202;9.876;2023-12-20T07:31:25;5.90;99.90
13673;DHT22;6909;52.202;9.876;2023-12-20T07:33:52;6.10;99.90
13673;DHT22;6909;52.202;9.876;2023-12-20T07:36:19;6.10;99.90
13673;DHT22;6909;52.202;9.876;2023-12-20T07:38:46;6.10;99.90
13673;DHT22;6909;52.202;9.876;2023-12-20T07:41:13;5.90;99.90
13673;DHT22;6909;52.202;9.876;2023-12-20T07:43:41;6.10;99.90
13673;DHT22;6909;52.202;9.876;2023-12-20T07:46:08;6.10;99.90
13673;DHT22;6909;52.202;9.876;2023-12-20T07:48:36;6.20;99.90
13673;DHT22;6909;52.202;9.876;2023-12-20T07:51:03;6.30;99.90
13673;DHT22;6909;52.202;9.876;2023-12-20T07:53:31;6.30;99.90
13673;DHT22;6909;52.202;9.876;2023-12-20T07:55:58;6.40;99.90
13673;DHT22;6909;52.202;9.876;2023-12-20T07:58:24;6.40;99.90
13673;DHT22;6909;52.202;9.876;2023-12-20T08:00:51;6.40;99.90
13673;DHT22;6909;52.202;9.876;2023-12-20T08:03:18;6.50;99.90
13673;DHT22;6909;52.202;9.876;2023-12-20T08:05:45;6.50;99.90
13673;DHT22;6909;52.202;9.876;2023-12-20T08:08:12;6.50;99.90
13673;DHT22;6909;52.202;9.876;2023-12-20T08:10:39;6.60;99.90
13673;DHT22;6909;52.202;9.876;2023-12-20T08:13:05;6.60;99.90
13673;DHT22;6909;52.202;9.876;2023-12-20T08:15:32;6.70;99.90
13673;DHT22;6909;52.202;9.876;2023-12-20T08:17:59;6.70;99.90
13673;DHT22;6909;52.202;9.876;2023-12-20T08:20:25;6.70;99.90
13673;DHT22;6909;52.202;9.876;2023-12-20T08:22:53;6.60;99.90
13673;DHT22;6909;52.202;9.876;2023-12-20T08:25:20;6.50;99.90
13673;DHT22;6909;52.202;9.876;2023-12-20T08:27:47;6.60;99.90
13673;DHT22;6909;52.202;9.876;2023-12-20T08:30:13;6.70;99.90
13673;DHT22;6909;52.202;9.876;2023-12-20T08:32:42;6.60;99.90
13673;DHT22;6909;52.202;9.876;2023-12-20T08:35:09;6.60;99.90
13673;DHT22;6909;52.202;9.876;2023-12-20T08:37:36;6.50;99.90
13673;DHT22;6909;52.202;9.876;2023-12-20T08:40:05;6.50;99.90
13673;DHT22;6909;52.202;9.876;2023-12-20T08:42:32;6.50;99.90
13673;DHT22;6909;52.202;9.876;2023-12-20T08:44:58;6.60;99.90
13673;DHT22;6909;52.202;9.876;2023-12-20T08:47:25;6.60;99.90
13673;DHT22;6909;52.202;9.876;2023-12-20T08:49:52;6.60;99.90
13673;DHT22;6909;52.202;9.876;2023-12-20T08:52:21;6.70;99.90
13673;DHT22;6909;52.202;9.876;2023-12-20T08:54:48;6.70;99.90
13673;DHT22;6909;52.202;9.876;2023-12-20T08:57:19;6.80;99.90
13673;DHT22;6909;52.202;9.876;2023-12-20T08:59:46;6.80;99.90
13673;DHT22;6909;52.202;9.876;2023-12-20T09:02:13;6.80;99.90
13673;DHT22;6909;52.202;9.876;2023-12-20T09:04:40;7.00;99.90
13673;DHT22;6909;52.202;9.876;2023-12-20T09:07:06;6.90;99.90
13673;DHT22;6909;52.202;9.876;2023-12-20T09:09:33;6.90;99.90
13673;DHT22;6909;52.202;9.876;2023-12-20T09:11:59;6.70;99.90
13673;DHT22;6909;52.202;9.876;2023-12-20T09:14:27;6.80;99.90
13673;DHT22;6909;52.202;9.876;2023-12-20T09:16:54;6.80;99.90
13673;DHT22;6909;52.202;9.876;2023-12-20T09:19:21;6.70;99.90
13673;DHT22;6909;52.202;9.876;2023-12-20T09:21:48;6.70;99.90
13673;DHT22;6909;52.202;9.876;2023-12-20T09:24:14;6.70;99.90
13673;DHT22;6909;52.202;9.876;2023-12-20T09:26:41;6.80;99.90
13673;DHT22;6909;52.202;9.876;2023-12-20T09:29:09;6.80;99.90
13673;DHT22;6909;52.202;9.876;2023-12-20T09:31:41;6.80;99.90
13673;DHT22;6909;52.202;9.876;2023-12-20T09:34:09;7.00;99.90
13673;DHT22;6909;52.202;9.876;2023-12-20T09:36:35;7.00;99.90
13673;DHT22;6909;52.202;9.876;2023-12-20T09:39:04;7.00;99.90
13673;DHT22;6909;52.202;9.876;2023-12-20T09:41:37;7.00;99.90
13673;DHT22;6909;52.202;9.876;2023-12-20T09:44:07;6.80;99.90
13673;DHT22;6909;52.202;9.876;2023-12-20T09:46:35;6.80;99.90
13673;DHT22;6909;52.202;9.876;2023-12-20T09:49:06;6.90;99.90
13673;DHT22;6909;52.202;9.876;2023-12-20T09:51:33;7.00;99.90
13673;DHT22;6909;52.202;9.876;2023-12-20T09:54:03;7.00;99.90
13673;DHT22;6909;52.202;9.876;2023-12-20T09:56:30;7.00;99.90
13673;DHT22;6909;52.202;9.876;2023-12-20T09:58:57;7.00;99.90
13673;DHT22;6909;52.202;9.876;2023-12-20T10:01:24;7.20;99.90
13673;DHT22;6909;52.202;9.876;2023-12-20T10:03:52;7.20;99.90
13673;DHT22;6909;52.202;9.876;2023-12-20T10:06:22;7.20;99.90
13673;DHT22;6909;52.202;9.876;2023-12-20T10:08:49;7.20;99.90
13673;DHT22;6909;52.202;9.876;2023-12-20T10:11:18;7.20;99.90
13673;DHT22;6909;52.202;9.876;2023-12-20T10:13:47;7.20;99.90
13673;DHT22;6909;52.202;9.876;2023-12-20T10:16:14;7.10;99.90
13673;DHT22;6909;52.202;9.876;2023-12-20T10:18:41;7.20;99.90
13673;DHT22;6909;52.202;9.876;2023-12-20T10:21:07;7.20;99.90
13673;DHT22;6909;52.202;9.876;2023-12-20T10:23:37;7.20;99.90
13673;DHT22;6909;52.202;9.876;2023-12-20T10:26:04;7.20;99.90
13673;DHT22;6909;52.202;9.876;2023-12-20T10:28:33;7.10;99.90
13673;DHT22;6909;52.202;9.876;2023-12-20T10:31:00;7.20;99.90
13673;DHT22;6909;52.202;9.876;2023-12-20T10:33:31;7.10;99.90
13673;DHT22;6909;52.202;9.876;2023-12-20T10:35:58;7.10;99.90
13673;DHT22;6909;52.202;9.876;2023-12-20T10:38:25;7.20;99.90
13673;DHT22;6909;52.202;9.876;2023-12-20T10:40:57;7.30;99.90
13673;DHT22;6909;52.202;9.876;2023-12-20T10:43:24;7.60;99.90
13673;DHT22;6909;52.202;9.876;2023-12-20T10:45:52;7.70;99.90
13673;DHT22;6909;52.202;9.876;2023-12-20T10:48:20;7.70;99.90
13673;DHT22;6909;52.202;9.876;2023-12-20T10:50:47;7.80;99.90
13673;DHT22;6909;52.202;9.876;2023-12-20T10:53:16;7.70;99.90
13673;DHT22;6909;52.202;9.876;2023-12-20T10:55:43;7.60;99.90
13673;DHT22;6909;52.202;9.876;2023-12-20T10:58:13;7.50;99.90
13673;DHT22;6909;52.202;9.876;2023-12-20T11:00:41;7.50;99.90
13673;DHT22;6909;52.202;9.876;2023-12-20T11:03:10;7.60;99.90
13673;DHT22;6909;52.202;9.876;2023-12-20T11:05:44;7.60;99.90
13673;DHT22;6909;52.202;9.876;2023-12-20T11:08:18;7.60;99.90
13673;DHT22;6909;52.202;9.876;2023-12-20T11:10:51;7.60;99.90
13673;DHT22;6909;52.202;9.876;2023-12-20T11:13:28;7.50;99.90
13673;DHT22;6909;52.202;9.876;2023-12-20T11:15:57;7.40;99.90
13673;DHT22;6909;52.202;9.876;2023-12-20T11:18:28;7.20;99.90
13673;DHT22;6909;52.202;9.876;2023-12-20T11:20:56;7.20;99.90
13673;DHT22;6909;52.202;9.876;2023-12-20T11:23:26;7.10;99.90
13673;DHT22;6909;52.202;9.876;2023-12-20T11:25:54;7.10;99.90
13673;DHT22;6909;52.202;9.876;2023-12-20T11:28:26;7.10;99.90
13673;DHT22;6909;52.202;9.876;2023-12-20T11:30:53;7.00;99.90
13673;DHT22;6909;52.202;9.876;2023-12-20T11:33:24;7.00;99.90
13673;DHT22;6909;52.202;9.876;2023-12-20T11:35:51;7.00;99.90
13673;DHT22;6909;52.202;9.876;2023-12-20T11:38:20;7.00;99.90
13673;DHT22;6909;52.202;9.876;2023-12-20T11:40:48;6.90;99.90
13673;DHT22;6909;52.202;9.876;2023-12-20T11:43:31;6.90;99.90
13673;DHT22;6909;52.202;9.876;2023-12-20T11:46:03;7.00;99.90
13673;DHT22;6909;52.202;9.876;2023-12-20T11:48:30;6.90;99.90
13673;DHT22;6909;52.202;9.876;2023-12-20T11:50:57;6.90;99.90
13673;DHT22;6909;52.202;9.876;2023-12-20T11:53:24;6.90;99.90
13673;DHT22;6909;52.202;9.876;2023-12-20T11:55:51;6.90;99.90
13673;DHT22;6909;52.202;9.876;2023-12-20T11:58:18;6.80;99.90
13673;DHT22;6909;52.202;9.876;2023-12-20T12:00:49;6.70;99.90
13673;DHT22;6909;52.202;9.876;2023-12-20T12:03:16;6.60;99.90
13673;DHT22;6909;52.202;9.876;2023-12-20T12:05:42;6.60;99.90
13673;DHT22;6909;52.202;9.876;2023-12-20T12:08:09;6.60;99.90
13673;DHT22;6909;52.202;9.876;2023-12-20T12:10:35;6.60;99.90
13673;DHT22;6909;52.202;9.876;2023-12-20T12:13:02;6.10;99.90
13673;DHT22;6909;52.202;9.876;2023-12-20T12:15:29;5.40;99.90
13673;DHT22;6909;52.202;9.876;2023-12-20T12:17:57;5.20;99.90
13673;DHT22;6909;52.202;9.876;2023-12-20T12:20:24;4.90;99.90
13673;DHT22;6909;52.202;9.876;2023-12-20T12:22:58;4.70;99.90
13673;DHT22;6909;52.202;9.876;2023-12-20T12:25:25;4.60;99.90
13673;DHT22;6909;52.202;9.876;2023-12-20T12:27:52;4.60;99.90
13673;DHT22;6909;52.202;9.876;2023-12-20T12:30:19;4.60;99.90
13673;DHT22;6909;52.202;9.876;2023-12-20T12:32:47;4.50;99.90
13673;DHT22;6909;52.202;9.876;2023-12-20T12:35:15;4.40;99.90
13673;DHT22;6909;52.202;9.876;2023-12-20T12:37:42;4.40;99.90
13673;DHT22;6909;52.202;9.876;2023-12-20T12:40:10;4.40;99.90
13673;DHT22;6909;52.202;9.876;2023-12-20T12:42:37;4.50;99.90
13673;DHT22;6909;52.202;9.876;2023-12-20T12:45:05;4.50;99.90
13673;DHT22;6909;52.202;9.876;2023-12-20T12:47:32;4.60;99.90
13673;DHT22;6909;52.202;9.876;2023-12-20T12:49:59;4.70;99.90
13673;DHT22;6909;52.202;9.876;2023-12-20T12:52:27;4.70;99.90
13673;DHT22;6909;52.202;9.876;2023-12-20T12:54:54;4.60;99.90
13673;DHT22;6909;52.202;9.876;2023-12-20T12:57:20;4.40;99.90
13673;DHT22;6909;52.202;9.876;2023-12-20T12:59:47;4.40;99.90
13673;DHT22;6909;52.202;9.876;2023-12-20T13:02:14;4.60;99.90
13673;DHT22;6909;52.202;9.876;2023-12-20T13:04:41;4.70;99.90
13673;DHT22;6909;52.202;9.876;2023-12-20T13:07:08;5.00;99.90
13673;DHT22;6909;52.202;9.876;2023-12-20T13:09:38;5.00;99.90
13673;DHT22;6909;52.202;9.876;2023-12-20T13:12:06;5.00;99.90
13673;DHT22;6909;52.202;9.876;2023-12-20T13:14:34;5.10;99.90
13673;DHT22;6909;52.202;9.876;2023-12-20T13:17:02;5.20;99.90
13673;DHT22;6909;52.202;9.876;2023-12-20T13:19:30;5.30;99.90
13673;DHT22;6909;52.202;9.876;2023-12-20T13:21:57;5.30;99.90
13673;DHT22;6909;52.202;9.876;2023-12-20T13:24:24;5.40;99.90
13673;DHT22;6909;52.202;9.876;2023-12-20T13:26:52;5.40;99.90
13673;DHT22;6909;52.202;9.876;2023-12-20T13:29:18;5.50;99.90
13673;DHT22;6909;52.202;9.876;2023-12-20T13:31:45;5.60;99.90
13673;DHT22;6909;52.202;9.876;2023-12-20T13:34:12;5.80;99.90
13673;DHT22;6909;52.202;9.876;2023-12-20T13:36:39;5.90;99.90
13673;DHT22;6909;52.202;9.876;2023-12-20T13:39:05;5.90;99.90
13673;DHT22;6909;52.202;9.876;2023-12-20T13:41:32;5.90;99.90
13673;DHT22;6909;52.202;9.876;2023-12-20T13:44:00;5.90;99.90
13673;DHT22;6909;52.202;9.876;2023-12-20T13:46:28;6.00;99.90
13673;DHT22;6909;52.202;9.876;2023-12-20T13:48:55;6.00;99.90
13673;DHT22;6909;52.202;9.876;2023-12-20T13:51:22;6.00;99.90
13673;DHT22;6909;52.202;9.876;2023-12-20T13:53:48;6.00;99.90
13673;DHT22;6909;52.202;9.876;2023-12-20T13:56:15;6.00;99.90
13673;DHT22;6909;52.202;9.876;2023-12-20T13:58:42;6.00;99.90
13673;DHT22;6909;52.202;9.876;2023-12-20T14:01:10;6.00;99.90
13673;DHT22;6909;52.202;9.876;2023-12-20T14:03:36;6.00;99.90
13673;DHT22;6909;52.202;9.876;2023-12-20T14:06:03;6.00;99.90
13673;DHT22;6909;52.202;9.876;2023-12-20T14:08:29;6.00;99.90
13673;DHT22;6909;52.202;9.876;2023-12-20T14:10:56;6.00;99.90
13673;DHT22;6909;52.202;9.876;2023-12-20T14:13:23;6.00;99.90
13673;DHT22;6909;52.202;9.876;2023-12-20T14:15:49;6.00;99.90
13673;DHT22;6909;52.202;9.876;2023-12-20T14:18:17;6.00;99.90
13673;DHT22;6909;52.202;9.876;2023-12-20T14:20:44;6.00;99.90
13673;DHT22;6909;52.202;9.876;2023-12-20T14:23:12;6.00;99.90
13673;DHT22;6909;52.202;9.876;2023-12-20T14:25:41;6.00;99.90
13673;DHT22;6909;52.202;9.876;2023-12-20T14:28:08;6.00;99.90
13673;DHT22;6909;52.202;9.876;2023-12-20T14:30:35;6.00;99.90
13673;DHT22;6909;52.202;9.876;2023-12-20T14:33:04;6.00;99.90
13673;DHT22;6909;52.202;9.876;2023-12-20T14:35:35;6.00;99.90
13673;DHT22;6909;52.202;9.876;2023-12-20T14:38:02;6.00;99.90
13673;DHT22;6909;52.202;9.876;2023-12-20T14:40:28;6.00;99.90
13673;DHT22;6909;52.202;9.876;2023-12-20T14:42:55;6.00;99.90
13673;DHT22;6909;52.202;9.876;2023-12-20T14:45:22;6.00;99.90
13673;DHT22;6909;52.202;9.876;2023-12-20T14:47:49;6.00;99.90
13673;DHT22;6909;52.202;9.876;2023-12-20T14:50:15;6.00;99.90
13673;DHT22;6909;52.202;9.876;2023-12-20T14:52:45;6.00;99.90
13673;DHT22;6909;52.202;9.876;2023-12-20T14:55:12;6.00;99.90
13673;DHT22;6909;52.202;9.876;2023-12-20T14:57:38;6.00;99.90
13673;DHT22;6909;52.202;9.876;2023-12-20T15:00:08;6.00;99.90
13673;DHT22;6909;52.202;9.876;2023-12-20T15:02:34;6.00;99.90
13673;DHT22;6909;52.202;9.876;2023-12-20T15:05:01;6.00;99.90
13673;DHT22;6909;52.202;9.876;2023-12-20T15:10:51;6.00;99.90
13673;DHT22;6909;52.202;9.876;2023-12-20T15:13:18;6.00;99.90
13673;DHT22;6909;52.202;9.876;2023-12-20T15:15:45;5.90;99.90
13673;DHT22;6909;52.202;9.876;2023-12-20T15:18:12;5.90;99.90
13673;DHT22;6909;52.202;9.876;2023-12-20T15:20:39;5.90;99.90
13673;DHT22;6909;52.202;9.876;2023-12-20T15:23:09;5.90;99.90
13673;DHT22;6909;52.202;9.876;2023-12-20T15:25:36;5.80;99.90
13673;DHT22;6909;52.202;9.876;2023-12-20T15:28:04;5.80;99.90
13673;DHT22;6909;52.202;9.876;2023-12-20T15:30:30;5.80;99.90
13673;DHT22;6909;52.202;9.876;2023-12-20T15:32:57;5.80;99.90
13673;DHT22;6909;52.202;9.876;2023-12-20T15:35:24;5.80;99.90
13673;DHT22;6909;52.202;9.876;2023-12-20T15:37:50;5.80;99.90
13673;DHT22;6909;52.202;9.876;2023-12-20T15:40:17;5.80;99.90
13673;DHT22;6909;52.202;9.876;2023-12-20T15:42:44;5.80;99.90
13673;DHT22;6909;52.202;9.876;2023-12-20T15:45:14;5.80;99.90
13673;DHT22;6909;52.202;9.876;2023-12-20T15:47:41;5.80;99.90
13673;DHT22;6909;52.202;9.876;2023-12-20T15:50:08;5.90;99.90
13673;DHT22;6909;52.202;9.876;2023-12-20T15:52:34;5.90;99.90
13673;DHT22;6909;52.202;9.876;2023-12-20T15:55:02;5.90;99.90
13673;DHT22;6909;52.202;9.876;2023-12-20T15:57:29;5.90;99.90
13673;DHT22;6909;52.202;9.876;2023-12-20T15:59:56;5.90;99.90
13673;DHT22;6909;52.202;9.876;2023-12-20T16:02:24;5.80;99.90
13673;DHT22;6909;52.202;9.876;2023-12-20T16:04:50;5.70;99.90